createdAt,value
2023-03-31T00:01:11.501Z,13.49
2023-03-31T00:03:44.946Z,13.65
2023-03-31T00:06:18.653Z,13.57
2023-03-31T00:08:52.608Z,13.61
2023-03-31T00:11:21.665Z,13.69
2023-03-31T00:13:50.080Z,13.77
2023-03-31T00:16:21.202Z,13.84
2023-03-31T00:19:10.624Z,13.81
2023-03-31T00:21:38.874Z,13.84
2023-03-31T00:24:08.399Z,13.86
2023-03-31T00:26:37.398Z,13.79
2023-03-31T00:29:08.526Z,13.67
2023-03-31T00:31:38.967Z,13.69
2023-03-31T00:34:09.163Z,13.74
2023-03-31T00:36:47.474Z,13.54
2023-03-31T00:39:19.245Z,13.48
2023-03-31T00:41:47.235Z,13.38
2023-03-31T00:44:19.184Z,13.33
2023-03-31T00:46:53.955Z,13.39
2023-03-31T00:49:28.416Z,13.23
2023-03-31T00:52:02.840Z,13.20
2023-03-31T00:54:34.080Z,13.28
2023-03-31T00:57:07.081Z,13.35
2023-03-31T00:59:39.215Z,13.31
2023-03-31T01:02:08.002Z,13.25
2023-03-31T01:04:44.757Z,13.31
2023-03-31T01:07:19.389Z,13.37
2023-03-31T01:09:48.863Z,13.37
2023-03-31T01:12:19.727Z,13.22
2023-03-31T01:14:48.524Z,13.30
2023-03-31T01:17:19.453Z,13.28
2023-03-31T01:20:07.207Z,13.28
2023-03-31T01:23:14.817Z,13.42
2023-03-31T01:26:21.730Z,13.41
2023-03-31T01:28:57.318Z,13.52
2023-03-31T01:32:06.140Z,13.57
2023-03-31T01:35:06.495Z,13.51
2023-03-31T01:38:22.467Z,13.48
2023-03-31T01:41:22.831Z,13.44
2023-03-31T01:43:58.563Z,13.57
2023-03-31T01:46:29.952Z,13.61
2023-03-31T01:49:06.989Z,13.53
2023-03-31T01:51:43.331Z,13.50
2023-03-31T01:54:21.669Z,13.48
2023-03-31T01:56:59.464Z,13.37
2023-03-31T01:59:32.036Z,13.35
2023-03-31T02:02:05.221Z,13.39
2023-03-31T02:04:38.715Z,13.35
2023-03-31T02:07:17.659Z,13.44
2023-03-31T02:09:50.136Z,13.52
2023-03-31T02:12:23.721Z,13.52
2023-03-31T02:14:55.088Z,13.51
2023-03-31T02:17:30.851Z,13.51
2023-03-31T02:20:05.681Z,13.43
2023-03-31T02:22:38.397Z,13.40
2023-03-31T02:25:09.337Z,13.41
2023-03-31T02:27:43.115Z,13.34
2023-03-31T02:30:14.870Z,13.27
2023-03-31T02:32:44.899Z,13.19
2023-03-31T02:35:16.949Z,13.17
2023-03-31T02:37:46.839Z,13.13
2023-03-31T02:40:18.997Z,13.16
2023-03-31T02:42:50.332Z,13.19
2023-03-31T02:45:46.230Z,13.32
2023-03-31T02:48:19.361Z,13.26
2023-03-31T02:51:20.502Z,13.18
2023-03-31T02:54:16.306Z,13.28
2023-03-31T02:56:59.287Z,13.22
2023-03-31T02:59:42.259Z,13.17
2023-03-31T03:02:19.030Z,13.21
2023-03-31T03:05:09.119Z,13.12
2023-03-31T03:07:45.781Z,13.12
2023-03-31T03:10:22.352Z,13.24
2023-03-31T03:12:58.784Z,13.19
2023-03-31T03:16:05.377Z,13.23
2023-03-31T03:18:33.685Z,13.28
2023-03-31T03:21:01.699Z,13.18
2023-03-31T03:23:29.828Z,13.23
2023-03-31T03:25:58.241Z,13.13
2023-03-31T03:28:26.512Z,13.19
2023-03-31T03:30:55.836Z,13.12
2023-03-31T03:33:25.144Z,13.25
2023-03-31T03:35:53.296Z,13.21
2023-03-31T03:38:21.301Z,13.19
2023-03-31T03:40:53.916Z,13.21
2023-03-31T03:43:21.891Z,13.21
2023-03-31T03:45:49.972Z,13.13
2023-03-31T03:48:19.737Z,13.19
2023-03-31T03:50:48.276Z,13.08
2023-03-31T03:53:17.488Z,13.12
2023-03-31T03:55:48.984Z,13.17
2023-03-31T03:58:17.389Z,13.24
2023-03-31T04:00:46.244Z,13.16
2023-03-31T04:03:14.824Z,13.11
2023-03-31T04:05:44.194Z,13.06
2023-03-31T04:08:12.361Z,13.08
2023-03-31T04:10:46.076Z,13.24
2023-03-31T04:13:14.177Z,13.26
2023-03-31T04:15:42.089Z,13.28
2023-03-31T04:18:18.994Z,13.31
2023-03-31T04:20:54.684Z,13.29
2023-03-31T04:23:43.000Z,13.19
2023-03-31T04:26:11.222Z,13.23
2023-03-31T04:28:43.022Z,13.23
2023-03-31T04:31:18.766Z,13.26
2023-03-31T04:33:48.187Z,13.33
2023-03-31T04:36:18.724Z,13.32
2023-03-31T04:38:47.870Z,13.30
2023-03-31T04:41:16.500Z,13.43
2023-03-31T04:43:44.710Z,13.46
2023-03-31T04:46:12.650Z,13.51
2023-03-31T04:48:41.381Z,13.51
2023-03-31T04:51:10.620Z,13.55
2023-03-31T04:53:41.188Z,13.62
2023-03-31T04:56:09.867Z,13.66
2023-03-31T04:58:38.080Z,13.61
2023-03-31T05:01:07.647Z,13.53
2023-03-31T05:03:36.021Z,13.63
2023-03-31T05:06:04.445Z,13.66
2023-03-31T05:08:33.659Z,13.55
2023-03-31T05:11:04.036Z,13.46
2023-03-31T05:13:32.561Z,13.56
2023-03-31T05:16:07.090Z,13.59
2023-03-31T05:18:35.519Z,13.55
2023-03-31T05:21:13.986Z,13.61
2023-03-31T05:23:42.114Z,13.58
2023-03-31T05:26:12.131Z,13.61
2023-03-31T05:28:40.342Z,13.74
2023-03-31T05:31:11.342Z,13.63
2023-03-31T05:33:41.987Z,13.71
2023-03-31T05:36:11.907Z,13.62
2023-03-31T05:38:40.320Z,13.66
2023-03-31T05:41:09.541Z,13.58
2023-03-31T05:43:40.788Z,13.64
2023-03-31T05:46:09.252Z,13.66
2023-03-31T05:48:38.722Z,13.65
2023-03-31T05:51:07.065Z,13.59
2023-03-31T05:53:35.083Z,13.72
2023-03-31T05:56:06.535Z,13.79
2023-03-31T05:58:35.595Z,13.71
2023-03-31T06:01:07.750Z,13.78
2023-03-31T06:03:36.590Z,13.76
2023-03-31T06:06:05.575Z,13.64
2023-03-31T06:08:34.197Z,13.59
2023-03-31T06:11:05.140Z,13.71
2023-03-31T06:13:33.383Z,13.84
2023-03-31T06:16:02.892Z,13.97
2023-03-31T06:18:35.134Z,13.97
2023-03-31T06:21:04.666Z,14.03
2023-03-31T06:23:33.149Z,14.01
2023-03-31T06:26:03.446Z,14.00
2023-03-31T06:28:31.859Z,14.09
2023-03-31T06:31:05.280Z,14.29
2023-03-31T06:33:36.339Z,14.24
2023-03-31T06:36:05.954Z,14.19
2023-03-31T06:38:34.290Z,14.22
2023-03-31T06:41:02.990Z,14.31
2023-03-31T06:43:31.154Z,14.36
2023-03-31T06:45:59.494Z,14.26
2023-03-31T06:48:31.016Z,14.33
2023-03-31T06:51:04.085Z,14.51
2023-03-31T06:53:32.371Z,14.43
2023-03-31T06:56:01.654Z,14.50
2023-03-31T06:58:31.381Z,14.59
2023-03-31T07:01:00.487Z,14.59
2023-03-31T07:03:29.705Z,14.70
2023-03-31T07:05:58.053Z,14.73
2023-03-31T07:08:28.272Z,14.84
2023-03-31T07:10:58.965Z,14.92
2023-03-31T07:13:28.586Z,15.03
2023-03-31T07:15:56.879Z,15.17
2023-03-31T07:18:34.893Z,15.12
2023-03-31T07:21:05.799Z,15.31
2023-03-31T07:23:38.041Z,15.03
2023-03-31T07:26:06.449Z,15.05
2023-03-31T07:28:35.839Z,15.22
2023-03-31T07:31:04.013Z,15.51
2023-03-31T07:33:32.194Z,15.58
2023-03-31T07:36:10.587Z,15.71
2023-03-31T07:38:41.435Z,15.65
2023-03-31T07:41:12.063Z,15.59
2023-03-31T07:43:40.088Z,15.66
2023-03-31T07:46:08.980Z,15.52
2023-03-31T07:48:37.252Z,15.33
2023-03-31T07:51:06.296Z,15.10
2023-03-31T07:53:34.637Z,14.95
2023-03-31T07:56:04.344Z,14.80
2023-03-31T07:58:32.531Z,14.57
2023-03-31T08:01:01.119Z,14.42
2023-03-31T08:03:29.200Z,14.43
2023-03-31T08:05:57.455Z,14.50
2023-03-31T08:08:26.019Z,14.38
2023-03-31T08:10:54.099Z,14.39
2023-03-31T08:13:23.430Z,14.34
2023-03-31T08:15:51.528Z,14.16
2023-03-31T08:18:20.073Z,14.24
2023-03-31T08:20:50.036Z,14.30
2023-03-31T08:23:18.088Z,14.35
2023-03-31T08:25:46.039Z,14.34
2023-03-31T08:28:14.167Z,14.36
2023-03-31T08:30:44.019Z,14.44
2023-03-31T08:33:12.957Z,14.45
2023-03-31T08:35:41.087Z,14.35
2023-03-31T08:38:09.327Z,14.48
2023-03-31T08:40:40.334Z,14.48
2023-03-31T08:43:15.875Z,14.48
2023-03-31T08:45:48.895Z,14.50
2023-03-31T08:48:30.183Z,14.40
2023-03-31T08:51:04.593Z,14.39
2023-03-31T08:53:37.179Z,14.40
2023-03-31T08:56:09.744Z,14.44
2023-03-31T08:58:41.538Z,14.43
2023-03-31T09:01:21.400Z,14.33
2023-03-31T09:04:12.483Z,14.27
2023-03-31T09:06:44.751Z,14.20
2023-03-31T09:09:18.943Z,14.25
2023-03-31T09:11:52.868Z,14.25
2023-03-31T09:14:29.043Z,14.01
2023-03-31T09:17:09.106Z,14.08
2023-03-31T09:19:39.799Z,14.11
2023-03-31T09:22:15.931Z,14.26
2023-03-31T09:24:52.526Z,14.40
2023-03-31T09:27:22.263Z,14.49
2023-03-31T09:29:54.350Z,14.50
2023-03-31T09:32:27.044Z,14.51
2023-03-31T09:35:01.313Z,14.51
2023-03-31T09:37:33.295Z,14.53
2023-03-31T09:40:07.753Z,14.57
2023-03-31T09:42:36.562Z,14.53
2023-03-31T09:45:05.006Z,14.56
2023-03-31T09:47:40.647Z,14.62
2023-03-31T09:50:09.461Z,14.55
2023-03-31T09:52:42.616Z,14.60
2023-03-31T09:55:32.112Z,14.65
2023-03-31T09:58:08.885Z,14.80
2023-03-31T10:00:38.286Z,14.96
2023-03-31T10:03:08.520Z,14.99
2023-03-31T10:05:40.227Z,15.02
2023-03-31T10:08:21.187Z,15.09
2023-03-31T10:10:51.970Z,15.10
2023-03-31T10:13:23.411Z,15.12
2023-03-31T10:15:54.570Z,15.06
2023-03-31T10:18:35.150Z,15.18
2023-03-31T10:21:05.447Z,15.39
2023-03-31T10:23:36.597Z,15.34
2023-03-31T10:26:06.097Z,15.47
2023-03-31T10:28:36.990Z,15.56
2023-03-31T10:31:06.644Z,15.54
2023-03-31T10:33:45.172Z,15.42
2023-03-31T10:36:25.990Z,15.40
2023-03-31T10:38:55.510Z,15.38
2023-03-31T10:41:26.462Z,15.64
2023-03-31T10:43:56.704Z,15.85
2023-03-31T10:46:42.253Z,16.06
2023-03-31T10:49:25.485Z,16.03
2023-03-31T10:51:54.712Z,15.84
2023-03-31T10:54:22.839Z,15.81
2023-03-31T10:56:54.332Z,15.76
2023-03-31T10:59:37.745Z,15.79
2023-03-31T11:02:23.272Z,15.56
2023-03-31T11:05:06.629Z,15.35
2023-03-31T11:07:49.244Z,15.32
2023-03-31T11:10:35.692Z,15.38
2023-03-31T11:13:12.827Z,15.40
2023-03-31T11:15:48.219Z,15.32
2023-03-31T11:18:37.915Z,15.41
2023-03-31T11:21:20.392Z,15.40
2023-03-31T11:23:55.003Z,15.43
2023-03-31T11:26:34.488Z,15.43
2023-03-31T11:29:44.946Z,15.28
2023-03-31T11:32:33.130Z,15.29
2023-03-31T11:35:19.919Z,15.19
2023-03-31T11:38:07.339Z,15.22
2023-03-31T11:40:48.471Z,15.35
2023-03-31T11:43:24.875Z,15.41
2023-03-31T11:45:57.862Z,15.37
2023-03-31T11:48:38.129Z,15.36
2023-03-31T11:51:13.183Z,15.39
2023-03-31T11:53:46.343Z,15.37
2023-03-31T11:56:16.128Z,15.40
2023-03-31T11:58:49.259Z,15.38
2023-03-31T12:01:25.113Z,15.17
2023-03-31T12:04:00.342Z,14.93
2023-03-31T12:06:32.894Z,14.76
2023-03-31T12:09:12.976Z,14.76
2023-03-31T12:11:46.144Z,14.77
2023-03-31T12:14:27.170Z,14.73
2023-03-31T12:16:59.456Z,14.57
2023-03-31T12:19:33.938Z,14.46
2023-03-31T12:22:09.896Z,14.45
2023-03-31T12:24:39.354Z,14.47
2023-03-31T12:27:14.600Z,14.43
2023-03-31T12:29:46.224Z,14.25
2023-03-31T12:32:19.552Z,14.30
2023-03-31T12:34:53.198Z,14.39
2023-03-31T12:38:07.431Z,14.45
2023-03-31T12:40:47.825Z,14.40
2023-03-31T12:43:56.862Z,14.39
2023-03-31T12:46:38.262Z,14.30
2023-03-31T12:49:19.703Z,14.34
2023-03-31T12:52:00.646Z,14.25
2023-03-31T12:55:03.856Z,14.14
2023-03-31T12:57:33.475Z,14.19
2023-03-31T13:00:23.726Z,14.22
2023-03-31T13:02:52.639Z,14.24
2023-03-31T13:05:47.297Z,14.12
2023-03-31T13:08:48.880Z,14.13
2023-03-31T13:11:17.714Z,14.27
2023-03-31T13:14:02.443Z,14.48
2023-03-31T13:16:31.345Z,14.69
2023-03-31T13:18:59.690Z,14.85
2023-03-31T13:21:28.864Z,14.88
2023-03-31T13:24:01.958Z,15.06
2023-03-31T13:26:47.335Z,15.19
2023-03-31T13:29:25.653Z,15.24
2023-03-31T13:32:23.032Z,15.36
2023-03-31T13:34:57.875Z,15.40
2023-03-31T13:37:53.513Z,15.37
2023-03-31T13:40:40.492Z,15.47
2023-03-31T13:43:41.268Z,15.47
2023-03-31T13:46:31.106Z,15.50
2023-03-31T13:49:11.422Z,15.59
2023-03-31T13:51:56.650Z,15.72
2023-03-31T13:54:56.216Z,15.93
2023-03-31T13:58:11.482Z,16.11
2023-03-31T14:00:56.016Z,16.30
2023-03-31T14:03:37.579Z,16.24
2023-03-31T14:06:12.809Z,16.34
2023-03-31T14:08:50.399Z,16.39
2023-03-31T14:11:23.027Z,16.26
2023-03-31T14:14:02.015Z,16.11
2023-03-31T14:16:33.864Z,16.19
2023-03-31T14:19:27.430Z,16.13
2023-03-31T14:22:04.750Z,16.20
2023-03-31T14:24:40.828Z,16.08
2023-03-31T14:27:21.846Z,16.26
2023-03-31T14:29:58.066Z,16.22
2023-03-31T14:32:34.160Z,16.29
2023-03-31T14:35:23.821Z,16.10
2023-03-31T14:37:52.244Z,16.21
2023-03-31T14:40:20.711Z,16.03
2023-03-31T14:42:50.932Z,16.12
2023-03-31T14:45:25.013Z,16.24
2023-03-31T14:47:58.125Z,16.17
2023-03-31T14:50:32.745Z,16.19
2023-03-31T14:53:01.514Z,16.12
2023-03-31T14:55:49.304Z,16.08
2023-03-31T14:58:26.306Z,16.04
2023-03-31T15:00:55.191Z,16.05
2023-03-31T15:03:23.277Z,16.00
2023-03-31T15:05:58.271Z,16.22
2023-03-31T15:08:27.907Z,16.35
2023-03-31T15:11:12.035Z,16.49
2023-03-31T15:13:46.826Z,16.56
2023-03-31T15:16:22.957Z,16.70
2023-03-31T15:18:54.836Z,16.68
2023-03-31T15:21:27.506Z,16.65
2023-03-31T15:23:57.587Z,16.53
2023-03-31T15:26:40.406Z,16.49
2023-03-31T15:29:11.324Z,16.58
2023-03-31T15:31:41.400Z,16.71
2023-03-31T15:34:20.952Z,16.73
2023-03-31T15:36:51.265Z,16.61
2023-03-31T15:39:19.802Z,16.45
2023-03-31T15:41:49.844Z,16.23
2023-03-31T15:44:37.831Z,16.15
2023-03-31T15:47:15.426Z,16.26
2023-03-31T15:49:51.346Z,16.26
2023-03-31T15:52:28.846Z,16.23
2023-03-31T15:54:57.270Z,16.24
2023-03-31T15:57:36.327Z,16.24
2023-03-31T16:00:08.008Z,16.16
2023-03-31T16:02:44.061Z,16.20
2023-03-31T16:05:32.268Z,16.19
2023-03-31T16:08:13.087Z,16.05
2023-03-31T16:10:42.151Z,16.02
2023-03-31T16:13:13.507Z,16.02
2023-03-31T16:15:46.759Z,16.03
2023-03-31T16:18:18.723Z,16.02
2023-03-31T16:20:53.228Z,15.92
2023-03-31T16:23:25.576Z,15.91
2023-03-31T16:25:54.174Z,15.94
2023-03-31T16:28:26.283Z,15.86
2023-03-31T16:30:54.850Z,15.80
2023-03-31T16:33:25.457Z,15.69
2023-03-31T16:35:56.557Z,15.57
2023-03-31T16:38:28.799Z,15.64
2023-03-31T16:40:59.262Z,15.68
2023-03-31T16:43:29.185Z,15.72
2023-03-31T16:46:00.489Z,15.59
2023-03-31T16:48:30.208Z,15.59
2023-03-31T16:51:01.896Z,15.56
2023-03-31T16:53:34.216Z,15.52
2023-03-31T16:56:02.541Z,15.50
2023-03-31T16:58:30.685Z,15.47
2023-03-31T17:00:59.138Z,15.29
2023-03-31T17:03:29.614Z,15.26
2023-03-31T17:05:59.613Z,15.21
2023-03-31T17:08:28.657Z,15.18
2023-03-31T17:11:02.339Z,15.12
2023-03-31T17:13:30.969Z,15.12
2023-03-31T17:16:13.088Z,15.09
2023-03-31T17:18:45.906Z,15.08
2023-03-31T17:21:16.591Z,15.08
2023-03-31T17:23:44.821Z,15.05
2023-03-31T17:26:15.486Z,15.06
2023-03-31T17:28:43.792Z,15.03
2023-03-31T17:31:16.289Z,15.08
2023-03-31T17:33:45.057Z,15.04
2023-03-31T17:36:13.790Z,15.05
2023-03-31T17:38:42.553Z,15.08
2023-03-31T17:41:15.695Z,15.11
2023-03-31T17:43:49.073Z,15.11
2023-03-31T17:46:17.844Z,15.11
2023-03-31T17:48:48.865Z,15.04
2023-03-31T17:51:20.050Z,14.97
2023-03-31T17:53:49.442Z,14.88
2023-03-31T17:56:18.863Z,14.89
2023-03-31T17:58:48.367Z,14.86
2023-03-31T18:01:16.559Z,14.80
2023-03-31T18:03:46.630Z,14.76
2023-03-31T18:06:15.883Z,14.74
2023-03-31T18:08:45.305Z,14.78
2023-03-31T18:11:13.664Z,14.81
2023-03-31T18:13:42.060Z,14.78
2023-03-31T18:16:13.232Z,14.77
2023-03-31T18:18:41.890Z,14.72
2023-03-31T18:21:13.199Z,14.72
2023-03-31T18:23:41.902Z,14.75
2023-03-31T18:26:12.155Z,14.72
2023-03-31T18:28:41.288Z,14.68
2023-03-31T18:31:11.834Z,14.69
2023-03-31T18:33:40.312Z,14.71
2023-03-31T18:36:09.606Z,14.72
2023-03-31T18:38:37.862Z,14.69
2023-03-31T18:41:06.286Z,14.70
2023-03-31T18:43:36.977Z,14.69
2023-03-31T18:46:05.089Z,14.73
2023-03-31T18:48:35.799Z,14.69
2023-03-31T18:51:05.107Z,14.65
2023-03-31T18:53:33.253Z,14.71
2023-03-31T18:56:01.421Z,14.63
2023-03-31T18:58:30.602Z,14.59
2023-03-31T19:00:59.597Z,14.57
2023-03-31T19:03:28.157Z,14.52
2023-03-31T19:06:04.853Z,14.52
2023-03-31T19:08:33.974Z,14.50
2023-03-31T19:11:11.035Z,14.42
2023-03-31T19:13:39.285Z,14.38
2023-03-31T19:16:07.777Z,14.40
2023-03-31T19:18:36.492Z,14.45
2023-03-31T19:21:06.457Z,14.47
2023-03-31T19:23:35.268Z,14.42
2023-03-31T19:26:03.923Z,14.41
2023-03-31T19:28:32.505Z,14.38
2023-03-31T19:31:03.632Z,14.37
2023-03-31T19:33:31.742Z,14.38
2023-03-31T19:36:00.406Z,14.41
2023-03-31T19:38:32.318Z,14.39
2023-03-31T19:41:00.368Z,14.27
2023-03-31T19:43:30.321Z,14.26
2023-03-31T19:45:59.489Z,14.24
2023-03-31T19:48:30.243Z,14.18
2023-03-31T19:51:00.739Z,14.16
2023-03-31T19:53:30.459Z,14.09
2023-03-31T19:56:03.204Z,14.13
2023-03-31T19:58:35.114Z,14.14
2023-03-31T20:01:04.814Z,14.11
2023-03-31T20:03:33.581Z,14.06
2023-03-31T20:06:07.629Z,14.09
2023-03-31T20:08:37.696Z,14.11
2023-03-31T20:11:08.402Z,14.09
2023-03-31T20:13:37.077Z,14.13
2023-03-31T20:16:07.750Z,14.10
2023-03-31T20:18:38.129Z,14.11
2023-03-31T20:21:09.077Z,14.08
2023-03-31T20:23:39.143Z,14.03
2023-03-31T20:26:09.106Z,14.01
2023-03-31T20:28:39.461Z,14.02
2023-03-31T20:31:10.742Z,13.99
2023-03-31T20:33:39.101Z,14.01
2023-03-31T20:36:10.298Z,14.06
2023-03-31T20:38:40.912Z,14.05
2023-03-31T20:41:09.825Z,13.95
2023-03-31T20:43:38.760Z,14.05
2023-03-31T20:46:10.462Z,13.99
2023-03-31T20:48:40.515Z,14.00
2023-03-31T20:51:11.381Z,14.01
2023-03-31T20:53:46.210Z,13.93
2023-03-31T20:56:16.903Z,13.95
2023-03-31T20:58:45.101Z,14.00
2023-03-31T21:01:17.130Z,13.99
2023-03-31T21:03:47.655Z,13.97
2023-03-31T21:06:19.769Z,13.97
2023-03-31T21:08:53.468Z,13.97
2023-03-31T21:11:22.860Z,13.90
2023-03-31T21:13:53.132Z,13.92
2023-03-31T21:16:25.526Z,13.85
2023-03-31T21:18:55.142Z,13.84
2023-03-31T21:21:25.054Z,13.87
2023-03-31T21:23:54.936Z,13.82
2023-03-31T21:26:24.867Z,13.88
2023-03-31T21:28:54.946Z,13.84
2023-03-31T21:31:26.286Z,13.66
2023-03-31T21:33:56.801Z,13.71
2023-03-31T21:36:25.521Z,13.82
2023-03-31T21:38:55.957Z,13.74
2023-03-31T21:41:26.258Z,13.72
2023-03-31T21:43:54.665Z,13.77
2023-03-31T21:46:26.073Z,13.83
2023-03-31T21:48:54.875Z,13.84
2023-03-31T21:51:23.575Z,13.79
2023-03-31T21:53:53.521Z,13.76
2023-03-31T21:56:25.942Z,13.77
2023-03-31T21:58:54.300Z,13.80
2023-03-31T22:01:23.641Z,13.77
2023-03-31T22:03:53.409Z,13.71
2023-03-31T22:06:22.537Z,13.59
2023-03-31T22:08:51.924Z,13.61
2023-03-31T22:11:20.564Z,13.65
2023-03-31T22:13:50.613Z,13.65
2023-03-31T22:16:21.569Z,13.68
2023-03-31T22:18:51.593Z,13.65
2023-03-31T22:21:23.226Z,13.71
2023-03-31T22:23:55.187Z,13.71
2023-03-31T22:26:26.199Z,13.62
2023-03-31T22:28:55.954Z,13.53
2023-03-31T22:31:26.250Z,13.43
2023-03-31T22:33:54.517Z,13.45
2023-03-31T22:36:23.163Z,13.55
2023-03-31T22:38:51.705Z,13.49
2023-03-31T22:41:19.810Z,13.44
2023-03-31T22:43:47.669Z,13.41
2023-03-31T22:46:17.860Z,13.36
2023-03-31T22:48:49.542Z,13.37
2023-03-31T22:51:17.552Z,13.46
2023-03-31T22:53:45.521Z,13.48
2023-03-31T22:56:13.624Z,13.52
2023-03-31T22:58:42.028Z,13.47
2023-03-31T23:01:15.701Z,13.53
2023-03-31T23:03:46.354Z,13.47
2023-03-31T23:06:15.688Z,13.48
2023-03-31T23:08:45.086Z,13.48
2023-03-31T23:11:14.356Z,13.49
2023-03-31T23:13:42.790Z,13.50
2023-03-31T23:16:13.986Z,13.51
2023-03-31T23:18:46.352Z,13.56
2023-03-31T23:21:19.669Z,13.51
2023-03-31T23:23:48.309Z,13.46
2023-03-31T23:26:19.204Z,13.53
2023-03-31T23:28:49.573Z,13.41
2023-03-31T23:31:18.049Z,13.38
2023-03-31T23:33:45.994Z,13.41
2023-03-31T23:36:17.776Z,13.42
2023-03-31T23:38:46.841Z,13.43
2023-03-31T23:41:15.194Z,13.44
2023-03-31T23:43:43.282Z,13.47
2023-03-31T23:46:12.072Z,13.49
2023-03-31T23:48:40.960Z,13.47
2023-03-31T23:51:10.162Z,13.46
2023-03-31T23:53:39.722Z,13.41
2023-03-31T23:56:09.898Z,13.44
2023-03-31T23:58:37.944Z,13.30
